createdAt,value
2018-06-01T00:02:26.374Z,17.59
2018-06-01T00:05:49.672Z,17.56
2018-06-01T00:09:18.324Z,17.40
2018-06-01T00:12:43.103Z,17.38
2018-06-01T00:16:08.326Z,17.47
2018-06-01T00:19:32.219Z,17.40
2018-06-01T00:22:57.271Z,17.43
2018-06-01T00:26:20.746Z,17.33
2018-06-01T00:29:44.208Z,17.31
2018-06-01T00:33:07.624Z,17.23
2018-06-01T00:36:31.030Z,17.20
2018-06-01T00:39:54.454Z,17.23
2018-06-01T00:43:17.739Z,17.23
2018-06-01T00:46:41.561Z,17.22
2018-06-01T00:50:06.870Z,17.21
2018-06-01T00:53:30.358Z,17.08
2018-06-01T00:56:53.797Z,17.08
2018-06-01T01:00:17.242Z,17.03
2018-06-01T01:03:40.764Z,17.07
2018-06-01T01:07:04.205Z,17.05
2018-06-01T01:10:27.615Z,17.23
2018-06-01T01:13:51.024Z,17.03
2018-06-01T01:17:19.245Z,17.09
2018-06-01T01:20:44.222Z,17.03
2018-06-01T01:24:07.703Z,17.14
2018-06-01T01:27:33.253Z,17.07
2018-06-01T01:30:56.642Z,17.03
2018-06-01T01:34:20.044Z,17.12
2018-06-01T01:37:43.543Z,17.16
2018-06-01T01:41:06.909Z,17.07
2018-06-01T01:44:30.399Z,17.04
2018-06-01T01:47:53.788Z,16.76
2018-06-01T01:51:17.223Z,16.80
2018-06-01T01:54:40.814Z,16.57
2018-06-01T01:58:04.287Z,16.53
2018-06-01T02:01:27.695Z,16.54
2018-06-01T02:04:51.304Z,16.42
2018-06-01T02:08:14.728Z,16.35
2018-06-01T02:11:38.184Z,16.32
2018-06-01T02:15:01.648Z,16.33
2018-06-01T02:18:25.061Z,16.13
2018-06-01T02:21:48.622Z,16.28
2018-06-01T02:25:11.938Z,16.17
2018-06-01T02:28:35.356Z,16.10
2018-06-01T02:31:58.767Z,16.00
2018-06-01T02:35:24.268Z,16.05
2018-06-01T02:38:47.706Z,15.88
2018-06-01T02:42:13.362Z,15.79
2018-06-01T02:45:36.695Z,15.57
2018-06-01T02:49:00.090Z,15.70
2018-06-01T02:52:23.648Z,15.82
2018-06-01T02:55:46.929Z,15.77
2018-06-01T02:59:10.381Z,15.80
2018-06-01T03:02:33.767Z,15.64
2018-06-01T03:05:57.282Z,15.65
2018-06-01T03:09:20.742Z,15.65
2018-06-01T03:12:44.174Z,15.66
2018-06-01T03:16:07.620Z,15.51
2018-06-01T03:19:31.054Z,15.82
2018-06-01T03:22:54.435Z,15.62
2018-06-01T03:26:17.992Z,15.73
2018-06-01T03:29:42.846Z,16.07
2018-06-01T03:33:06.957Z,16.26
2018-06-01T03:36:30.275Z,16.28
2018-06-01T03:39:53.822Z,16.28
2018-06-01T03:43:17.164Z,16.40
2018-06-01T03:46:40.604Z,16.22
2018-06-01T03:50:04.074Z,16.00
2018-06-01T03:53:29.624Z,16.10
2018-06-01T03:56:52.983Z,16.25
2018-06-01T04:00:17.979Z,16.19
2018-06-01T04:03:42.096Z,16.48
2018-06-01T04:07:05.532Z,16.53
2018-06-01T04:10:31.050Z,16.63
2018-06-01T04:13:54.459Z,16.66
2018-06-01T04:17:18.006Z,16.38
2018-06-01T04:20:41.344Z,16.71
2018-06-01T04:24:04.833Z,16.95
2018-06-01T04:27:28.471Z,16.87
2018-06-01T04:30:51.855Z,16.77
2018-06-01T04:34:15.249Z,16.96
2018-06-01T04:37:38.689Z,17.02
2018-06-01T04:41:02.125Z,16.92
2018-06-01T04:44:25.719Z,17.10
2018-06-01T04:47:49.050Z,16.95
2018-06-01T04:51:12.489Z,16.78
2018-06-01T04:54:35.883Z,16.91
2018-06-01T04:57:59.168Z,16.78
2018-06-01T05:01:22.452Z,16.99
2018-06-01T05:04:46.229Z,17.22
2018-06-01T05:08:09.634Z,17.18
2018-06-01T05:11:33.157Z,17.31
2018-06-01T05:14:56.481Z,17.13
2018-06-01T05:18:19.930Z,17.55
2018-06-01T05:21:43.458Z,17.16
2018-06-01T05:25:06.923Z,17.31
2018-06-01T05:28:30.397Z,17.48
2018-06-01T05:31:53.785Z,17.65
2018-06-01T05:35:17.125Z,17.61
2018-06-01T05:38:40.791Z,17.78
2018-06-01T05:42:04.089Z,17.93
2018-06-01T05:45:27.529Z,17.80
2018-06-01T05:48:51.045Z,18.21
2018-06-01T05:52:16.822Z,18.08
2018-06-01T05:55:40.238Z,18.04
2018-06-01T05:59:03.673Z,18.03
2018-06-01T06:02:29.391Z,17.91
2018-06-01T06:05:52.701Z,18.20
2018-06-01T06:09:16.171Z,18.13
2018-06-01T06:12:39.603Z,18.13
2018-06-01T06:16:03.407Z,17.99
2018-06-01T06:19:27.031Z,18.14
2018-06-01T06:22:50.346Z,18.27
2018-06-01T06:26:13.809Z,18.43
2018-06-01T06:29:37.779Z,18.26
2018-06-01T06:33:01.229Z,18.52
2018-06-01T06:36:26.794Z,18.75
2018-06-01T06:39:50.196Z,18.58
2018-06-01T06:43:13.767Z,18.64
2018-06-01T06:46:37.182Z,18.72
2018-06-01T06:50:00.651Z,18.68
2018-06-01T06:53:24.067Z,19.09
2018-06-01T06:56:47.641Z,18.91
2018-06-01T07:00:13.225Z,19.10
2018-06-01T07:03:36.895Z,19.39
2018-06-01T07:07:02.289Z,19.43
2018-06-01T07:10:25.794Z,19.57
2018-06-01T07:13:51.385Z,19.95
2018-06-01T07:17:14.774Z,20.00
2018-06-01T07:20:38.241Z,20.10
2018-06-01T07:24:01.811Z,20.24
2018-06-01T07:27:25.132Z,20.38
2018-06-01T07:30:48.596Z,20.03
2018-06-01T07:34:14.133Z,20.20
2018-06-01T07:37:37.596Z,20.16
2018-06-01T07:41:02.721Z,20.28
2018-06-01T07:44:27.614Z,20.13
2018-06-01T07:47:51.664Z,20.11
2018-06-01T07:51:17.366Z,20.44
2018-06-01T07:54:40.911Z,20.64
2018-06-01T07:58:04.341Z,20.71
2018-06-01T08:01:28.553Z,20.87
2018-06-01T08:04:53.520Z,21.31
2018-06-01T08:08:16.886Z,21.37
2018-06-01T08:11:41.545Z,21.39
2018-06-01T08:15:05.268Z,21.39
2018-06-01T08:18:28.683Z,21.21
2018-06-01T08:21:52.061Z,21.67
2018-06-01T08:25:15.634Z,21.14
2018-06-01T08:28:39.780Z,21.37
2018-06-01T08:32:03.939Z,21.51
2018-06-01T08:35:28.925Z,22.02
2018-06-01T08:38:53.257Z,21.92
2018-06-01T08:42:16.824Z,21.66
2018-06-01T08:45:40.333Z,22.21
2018-06-01T08:49:03.977Z,22.58
2018-06-01T08:52:27.605Z,22.51
2018-06-01T08:55:51.165Z,22.44
2018-06-01T08:59:14.611Z,23.07
2018-06-01T09:02:37.999Z,23.10
2018-06-01T09:06:02.098Z,22.93
2018-06-01T09:09:27.109Z,22.54
2018-06-01T09:12:50.551Z,22.20
2018-06-01T09:16:15.617Z,21.69
2018-06-01T09:19:39.998Z,21.88
2018-06-01T09:23:03.527Z,22.55
2018-06-01T09:26:26.968Z,22.53
2018-06-01T09:29:52.671Z,23.01
2018-06-01T09:33:16.047Z,22.83
2018-06-01T09:36:39.511Z,23.05
2018-06-01T09:40:05.003Z,22.93
2018-06-01T09:43:28.420Z,22.82
2018-06-01T09:46:51.879Z,22.90
2018-06-01T09:50:15.193Z,23.00
2018-06-01T09:53:38.797Z,22.87
2018-06-01T09:57:04.316Z,22.96
2018-06-01T10:00:33.492Z,23.07
2018-06-01T10:03:57.578Z,23.13
2018-06-01T10:07:21.188Z,23.36
2018-06-01T10:10:44.535Z,23.42
2018-06-01T10:14:08.016Z,23.03
2018-06-01T10:17:31.534Z,24.35
2018-06-01T10:20:55.104Z,23.91
2018-06-01T10:24:18.870Z,24.22
2018-06-01T10:27:42.977Z,23.70
2018-06-01T10:31:06.733Z,24.25
2018-06-01T10:34:30.188Z,24.33
2018-06-01T10:37:53.820Z,24.08
2018-06-01T10:41:17.254Z,24.33
2018-06-01T10:44:40.755Z,24.23
2018-06-01T10:48:04.683Z,24.08
2018-06-01T10:51:29.777Z,24.48
2018-06-01T10:54:53.178Z,23.88
2018-06-01T10:58:17.238Z,23.73
2018-06-01T11:01:40.896Z,23.51
2018-06-01T11:05:04.582Z,23.08
2018-06-01T11:08:27.973Z,23.35
2018-06-01T11:11:51.484Z,24.07
2018-06-01T11:15:17.022Z,23.28
2018-06-01T11:18:40.325Z,23.86
2018-06-01T11:22:04.060Z,23.77
2018-06-01T11:25:27.636Z,23.96
2018-06-01T11:28:52.625Z,23.86
2018-06-01T11:32:17.050Z,24.18
2018-06-01T11:35:41.988Z,24.49
2018-06-01T11:39:07.964Z,24.38
2018-06-01T11:42:31.654Z,24.63
2018-06-01T11:45:57.057Z,24.78
2018-06-01T11:49:22.396Z,24.79
2018-06-01T11:52:46.457Z,24.59
2018-06-01T11:56:11.553Z,25.60
2018-06-01T11:59:35.143Z,25.63
2018-06-01T12:03:00.169Z,24.50
2018-06-01T12:06:25.615Z,25.05
2018-06-01T12:09:49.746Z,25.06
2018-06-01T12:13:13.152Z,25.86
2018-06-01T12:16:38.161Z,24.63
2018-06-01T12:20:03.449Z,24.62
2018-06-01T12:23:27.440Z,25.27
2018-06-01T12:26:53.496Z,24.80
2018-06-01T12:30:16.943Z,24.85
2018-06-01T12:33:40.435Z,25.04
2018-06-01T12:37:03.935Z,25.19
2018-06-01T12:40:27.639Z,24.57
2018-06-01T12:43:52.892Z,25.15
2018-06-01T12:47:16.347Z,25.54
2018-06-01T12:50:39.810Z,25.05
2018-06-01T12:54:04.539Z,25.52
2018-06-01T12:57:29.755Z,26.15
2018-06-01T13:00:55.083Z,25.05
2018-06-01T13:04:19.920Z,25.41
2018-06-01T13:07:43.980Z,25.95
2018-06-01T13:11:07.593Z,25.90
2018-06-01T13:14:33.457Z,26.28
2018-06-01T13:17:58.549Z,25.75
2018-06-01T13:21:22.919Z,26.58
2018-06-01T13:24:47.732Z,26.42
2018-06-01T13:28:11.446Z,27.06
2018-06-01T13:31:34.905Z,25.81
2018-06-01T13:34:59.116Z,25.73
2018-06-01T13:38:24.035Z,25.53
2018-06-01T13:41:47.319Z,25.59
2018-06-01T13:45:11.162Z,25.70
2018-06-01T13:48:34.930Z,25.47
2018-06-01T13:52:00.099Z,26.25
2018-06-01T13:55:24.108Z,26.69
2018-06-01T13:58:47.696Z,25.51
2018-06-01T14:02:11.156Z,25.65
2018-06-01T14:05:36.639Z,25.90
2018-06-01T14:09:00.346Z,25.19
2018-06-01T14:12:23.935Z,25.81
2018-06-01T14:15:47.575Z,25.48
2018-06-01T14:19:11.500Z,26.14
2018-06-01T14:22:36.794Z,25.59
2018-06-01T14:26:00.346Z,27.00
2018-06-01T14:29:23.926Z,26.46
2018-06-01T14:32:47.319Z,25.91
2018-06-01T14:36:10.771Z,25.88
2018-06-01T14:39:34.232Z,26.00
2018-06-01T14:42:59.765Z,26.00
2018-06-01T14:46:23.215Z,25.30
2018-06-01T14:49:46.814Z,25.20
2018-06-01T14:53:10.650Z,25.09
2018-06-01T14:56:34.133Z,24.85
2018-06-01T14:59:59.091Z,24.87
2018-06-01T15:03:23.896Z,25.07
2018-06-01T15:06:47.387Z,25.12
2018-06-01T15:10:13.100Z,25.81
2018-06-01T15:13:36.688Z,26.36
2018-06-01T15:17:00.330Z,26.00
2018-06-01T15:20:23.639Z,25.93
2018-06-01T15:23:48.199Z,25.89
2018-06-01T15:27:17.995Z,25.32
2018-06-01T15:30:43.288Z,25.30
2018-06-01T15:34:06.686Z,26.34
2018-06-01T15:37:32.414Z,25.75
2018-06-01T15:40:57.928Z,25.20
2018-06-01T15:44:21.358Z,24.69
2018-06-01T15:47:46.846Z,24.47
2018-06-01T15:51:12.414Z,24.71
2018-06-01T15:54:38.306Z,24.56
2018-06-01T15:58:03.552Z,24.26
2018-06-01T16:01:26.975Z,24.32
2018-06-01T16:04:50.379Z,24.54
2018-06-01T16:08:13.821Z,24.00
2018-06-01T16:11:37.490Z,23.80
2018-06-01T16:15:00.800Z,23.41
2018-06-01T16:18:24.215Z,23.35
2018-06-01T16:21:47.605Z,23.05
2018-06-01T16:25:11.062Z,23.07
2018-06-01T16:28:34.520Z,22.90
2018-06-01T16:31:58.097Z,22.91
2018-06-01T16:35:21.488Z,22.91
2018-06-01T16:38:47.049Z,22.70
2018-06-01T16:42:10.469Z,22.54
2018-06-01T16:45:34.012Z,22.05
2018-06-01T16:48:59.509Z,21.39
2018-06-01T16:52:23.750Z,21.21
2018-06-01T16:55:49.299Z,21.54
2018-06-01T16:59:14.745Z,21.67
2018-06-01T17:02:38.154Z,21.37
2018-06-01T17:06:01.743Z,20.87
2018-06-01T17:09:25.084Z,20.72
2018-06-01T17:12:48.607Z,20.70
2018-06-01T17:16:14.159Z,20.49
2018-06-01T17:19:37.670Z,20.53
2018-06-01T17:23:01.175Z,20.58
2018-06-01T17:26:24.653Z,20.14
2018-06-01T17:29:48.828Z,20.10
2018-06-01T17:33:15.790Z,20.36
2018-06-01T17:36:42.844Z,20.30
2018-06-01T17:40:06.982Z,20.39
2018-06-01T17:43:30.468Z,20.26
2018-06-01T17:46:56.140Z,20.50
2018-06-01T17:50:19.624Z,20.14
2018-06-01T17:53:44.974Z,20.07
2018-06-01T17:57:09.934Z,20.53
2018-06-01T18:00:34.021Z,20.61
2018-06-01T18:03:57.563Z,21.30
2018-06-01T18:07:23.114Z,21.47
2018-06-01T18:10:46.595Z,21.47
2018-06-01T18:14:10.133Z,21.94
2018-06-01T18:17:35.540Z,22.44
2018-06-01T18:20:59.703Z,22.57
2018-06-01T18:24:25.333Z,22.89
2018-06-01T18:27:54.434Z,22.74
2018-06-01T18:31:18.675Z,22.10
2018-06-01T18:34:42.171Z,22.61
2018-06-01T18:38:05.557Z,22.31
2018-06-01T18:41:31.893Z,21.96
2018-06-01T18:44:56.669Z,21.77
2018-06-01T18:48:20.169Z,21.67
2018-06-01T18:51:47.223Z,21.30
2018-06-01T18:55:11.654Z,21.11
2018-06-01T18:58:34.938Z,20.99
2018-06-01T19:01:58.376Z,20.89
2018-06-01T19:05:21.875Z,20.72
2018-06-01T19:08:45.507Z,20.72
2018-06-01T19:12:08.863Z,20.49
2018-06-01T19:15:32.784Z,20.18
2018-06-01T19:18:57.923Z,20.24
2018-06-01T19:22:21.285Z,19.97
2018-06-01T19:25:46.954Z,19.93
2018-06-01T19:29:10.411Z,19.74
2018-06-01T19:32:33.874Z,19.83
2018-06-01T19:35:57.288Z,19.82
2018-06-01T19:39:22.865Z,19.76
2018-06-01T19:42:46.425Z,19.68
2018-06-01T19:46:09.790Z,19.63
2018-06-01T19:49:33.356Z,19.57
2018-06-01T19:52:58.290Z,19.43
2018-06-01T19:56:22.487Z,19.32
2018-06-01T19:59:46.144Z,19.48
2018-06-01T20:03:11.536Z,19.37
2018-06-01T20:06:37.142Z,19.36
2018-06-01T20:10:00.688Z,19.22
2018-06-01T20:13:26.245Z,19.36
2018-06-01T20:16:49.640Z,19.39
2018-06-01T20:20:13.151Z,19.30
2018-06-01T20:23:36.586Z,19.17
2018-06-01T20:27:00.286Z,19.17
2018-06-01T20:30:44.286Z,19.29
2018-06-01T20:34:08.339Z,19.11
2018-06-01T20:37:31.726Z,19.00
2018-06-01T20:40:55.143Z,18.85
2018-06-01T20:44:18.678Z,18.92
2018-06-01T20:47:42.215Z,19.06
2018-06-01T20:51:05.836Z,18.98
2018-06-01T20:54:29.119Z,18.95
2018-06-01T20:57:54.818Z,18.87
2018-06-01T21:01:20.525Z,18.91
2018-06-01T21:04:45.792Z,18.97
2018-06-01T21:08:09.982Z,18.87
2018-06-01T21:11:34.787Z,18.96
2018-06-01T21:14:58.156Z,18.83
2018-06-01T21:18:21.604Z,18.69
2018-06-01T21:21:45.079Z,18.76
2018-06-01T21:25:08.526Z,18.84
2018-06-01T21:28:34.065Z,18.82
2018-06-01T21:31:58.933Z,18.86
2018-06-01T21:35:24.527Z,18.74
2018-06-01T21:38:48.623Z,18.60
2018-06-01T21:42:14.188Z,18.62
2018-06-01T21:45:37.700Z,18.58
2018-06-01T21:49:01.120Z,18.46
2018-06-01T21:52:24.793Z,18.40
2018-06-01T21:55:48.151Z,18.39
2018-06-01T21:59:13.344Z,18.40
2018-06-01T22:02:37.345Z,18.30
2018-06-01T22:06:00.828Z,18.27
2018-06-01T22:09:24.415Z,18.33
2018-06-01T22:12:47.902Z,18.39
2018-06-01T22:16:11.370Z,18.43
2018-06-01T22:19:34.955Z,18.22
2018-06-01T22:23:00.292Z,18.30
2018-06-01T22:26:23.906Z,18.17
2018-06-01T22:29:49.032Z,18.21
2018-06-01T22:33:13.437Z,18.43
2018-06-01T22:36:37.110Z,18.33
2018-06-01T22:40:01.463Z,18.35
2018-06-01T22:43:25.985Z,18.55
2018-06-01T22:46:50.904Z,18.73
2018-06-01T22:50:15.254Z,18.45
2018-06-01T22:53:44.370Z,18.34
2018-06-01T22:57:08.432Z,18.36
2018-06-01T23:00:47.988Z,18.34
2018-06-01T23:04:14.034Z,18.53
2018-06-01T23:07:41.725Z,18.28
2018-06-01T23:11:05.964Z,18.66
2018-06-01T23:14:29.739Z,18.61
2018-06-01T23:17:53.491Z,18.25
2018-06-01T23:21:16.905Z,18.43
2018-06-01T23:24:40.315Z,19.03
2018-06-01T23:28:03.760Z,18.65
2018-06-01T23:31:27.153Z,18.28
2018-06-01T23:34:57.564Z,18.30
2018-06-01T23:38:22.449Z,18.04
2018-06-01T23:41:45.871Z,17.96
2018-06-01T23:45:09.290Z,18.21
2018-06-01T23:48:32.731Z,17.87
2018-06-01T23:51:56.387Z,17.63
2018-06-01T23:55:19.667Z,17.70
2018-06-01T23:58:43.190Z,17.62
